Time;durP1;ratioP1;P1;durP2;ratioP2;P2;SDS_P1;SDS_P2;PMS_P1;PMS_P2;Temp;Humidity;BMP_temperature;BMP_pressure;BME280_temperature;BME280_humidity;BME280_pressure;Samples;Min_cycle;Max_cycle;Signal;HPM_P1;HPM_P2
2022/04/29 00:00:16;;;;;;;8.68;5.15;;;;;;;18.91;28.75;102462.56;5024190;28;20557;-73
2022/04/29 00:02:43;;;;;;;6.68;4.97;;;;;;;18.87;29.11;102467.41;5057525;28;20435;-73
2022/04/29 00:05:10;;;;;;;9.35;5.07;;;;;;;18.88;29.27;102473.81;5032626;28;20128;-73
2022/04/29 00:07:38;;;;;;;7.18;5.25;;;;;;;18.85;29.34;102465.81;5032957;28;20474;-74
2022/04/29 00:10:07;;;;;;;7.70;5.25;;;;;;;18.85;29.21;102463.06;5027551;28;20081;-74
2022/04/29 00:12:34;;;;;;;6.53;4.55;;;;;;;18.82;29.11;102461.41;5024853;28;20073;-74
2022/04/29 00:15:00;;;;;;;8.43;5.10;;;;;;;18.80;29.55;102465.25;5036240;28;20333;-73
2022/04/29 00:17:27;;;;;;;7.18;4.68;;;;;;;18.79;29.42;102460.75;5021202;28;20120;-74
2022/04/29 00:19:53;;;;;;;7.68;4.97;;;;;;;18.78;29.52;102465.38;5035155;28;20049;-74
2022/04/29 00:22:21;;;;;;;8.40;4.85;;;;;;;18.77;29.54;102460.00;5027265;28;20056;-73
2022/04/29 00:24:47;;;;;;;6.85;4.55;;;;;;;18.75;29.40;102465.63;5030537;28;20053;-73
2022/04/29 00:27:14;;;;;;;7.03;4.97;;;;;;;18.74;29.38;102471.25;5031320;28;20481;-74
2022/04/29 00:29:40;;;;;;;7.75;4.57;;;;;;;18.73;29.62;102469.47;5030886;28;20148;-74
2022/04/29 00:32:08;;;;;;;7.05;4.55;;;;;;;18.71;29.18;102474.22;5025932;28;20046;-74
2022/04/29 00:34:34;;;;;;;7.05;4.45;;;;;;;18.69;29.35;102473.47;5028024;28;20079;-74
2022/04/29 00:37:01;;;;;;;7.32;4.85;;;;;;;18.68;29.43;102472.59;5027856;28;20076;-75
2022/04/29 00:39:28;;;;;;;6.97;4.25;;;;;;;18.66;29.55;102466.31;5026721;28;20475;-75
2022/04/29 00:41:54;;;;;;;7.15;4.72;;;;;;;18.64;29.56;102462.78;5028373;28;20550;-75
2022/04/29 00:44:21;;;;;;;7.95;5.15;;;;;;;18.62;29.63;102462.91;5038438;28;20514;-74
2022/04/29 00:46:48;;;;;;;6.85;4.63;;;;;;;18.59;29.60;102449.41;5033706;28;20045;-75
2022/04/29 00:49:16;;;;;;;8.48;5.32;;;;;;;18.59;29.58;102446.66;5040019;28;20148;-74
2022/04/29 00:51:46;;;;;;;6.80;4.75;;;;;;;18.58;29.75;102442.13;5037899;28;20128;-74
2022/04/29 00:54:16;;;;;;;6.95;4.82;;;;;;;18.55;29.90;102431.31;5028117;28;20534;-75
2022/04/29 00:59:15;;;;;;;9.25;5.30;;;;;;;18.52;30.08;102430.69;5047113;28;20409;-68
2022/04/29 01:01:46;;;;;;;8.77;5.30;;;;;;;18.50;30.07;102422.53;5046514;28;20048;-71
2022/04/29 01:04:21;;;;;;;8.60;5.03;;;;;;;18.48;30.19;102423.66;5046663;28;20052;-70
2022/04/29 01:06:48;;;;;;;6.82;4.95;;;;;;;18.43;29.68;102418.50;5047032;28;20135;-70
2022/04/29 01:09:14;;;;;;;8.90;5.22;;;;;;;18.42;30.11;102422.25;5048160;28;20045;-71
2022/04/29 01:11:41;;;;;;;6.55;4.38;;;;;;;18.42;29.92;102424.13;5045147;28;20133;-70
2022/04/29 01:14:08;;;;;;;7.03;5.03;;;;;;;18.39;29.97;102424.34;5048271;28;20128;-70
2022/04/29 01:16:34;;;;;;;8.77;5.55;;;;;;;18.38;30.02;102417.94;5047471;28;20132;-70
2022/04/29 01:19:01;;;;;;;8.45;5.50;;;;;;;18.37;30.17;102420.81;5048324;28;20141;-70
2022/04/29 01:21:27;;;;;;;8.95;4.82;;;;;;;18.35;30.23;102418.19;5046690;28;20565;-70
2022/04/29 01:23:54;;;;;;;8.25;5.10;;;;;;;18.34;30.20;102415.56;5046456;28;20692;-71
2022/04/29 01:26:20;;;;;;;9.25;5.45;;;;;;;18.32;29.92;102410.16;5046899;28;20490;-71
2022/04/29 01:28:47;;;;;;;7.03;5.28;;;;;;;18.31;30.20;102411.16;5048426;28;20131;-71
2022/04/29 01:31:14;;;;;;;9.43;5.38;;;;;;;18.29;30.29;102402.13;5047445;28;20114;-71
2022/04/29 01:33:49;;;;;;;6.97;5.30;;;;;;;18.28;30.27;102405.03;5047498;28;20530;-70
2022/04/29 01:36:16;;;;;;;9.05;5.72;;;;;;;18.22;30.04;102403.59;5046828;28;20072;-71
2022/04/29 01:38:43;;;;;;;7.78;5.25;;;;;;;18.19;30.35;102403.84;5047883;28;20136;-70
2022/04/29 01:41:09;;;;;;;7.60;5.75;;;;;;;18.17;30.32;102401.19;5045090;28;20344;-70
2022/04/29 01:43:36;;;;;;;9.55;5.63;;;;;;;18.14;30.69;102395.91;5047679;28;20553;-70
2022/04/29 01:46:02;;;;;;;9.27;5.28;;;;;;;18.11;30.75;102396.16;5046790;28;20513;-71
2022/04/29 01:48:29;;;;;;;8.52;5.43;;;;;;;18.10;30.82;102393.53;5047419;28;20478;-70
2022/04/29 01:50:56;;;;;;;8.32;5.65;;;;;;;18.09;30.61;102391.75;5046504;28;20090;-70
2022/04/29 01:53:23;;;;;;;7.60;5.40;;;;;;;18.08;30.49;102396.38;5047683;28;20331;-70
2022/04/29 01:55:49;;;;;;;6.50;5.07;;;;;;;18.05;30.93;102396.59;5046943;28;20135;-70
2022/04/29 01:58:16;;;;;;;7.50;5.25;;;;;;;18.05;30.67;102403.97;5046607;28;20903;-71
2022/04/29 02:00:42;;;;;;;8.10;5.70;;;;;;;18.03;30.76;102404.09;5047051;28;20059;-70
2022/04/29 02:03:09;;;;;;;10.02;6.00;;;;;;;18.03;30.48;102404.09;5046134;28;20045;-70
2022/04/29 02:05:36;;;;;;;8.55;5.88;;;;;;;18.01;31.02;102400.59;5048375;28;20402;-70
2022/04/29 02:08:03;;;;;;;10.43;5.88;;;;;;;18.00;30.90;102395.19;5046042;28;20041;-70
2022/04/29 02:10:29;;;;;;;10.02;5.82;;;;;;;17.98;31.19;102394.41;5047350;28;20168;-70
2022/04/29 02:12:56;;;;;;;11.70;6.50;;;;;;;17.96;31.11;102394.53;5046506;28;20140;-70
2022/04/29 02:15:26;;;;;;;8.98;6.10;;;;;;;17.96;31.34;102400.03;5047710;28;20687;-70
2022/04/29 02:17:52;;;;;;;9.63;6.55;;;;;;;17.92;31.05;102383.88;5045699;28;20041;-70
2022/04/29 02:20:21;;;;;;;9.18;6.13;;;;;;;17.89;30.85;102390.47;5047124;28;20127;-70
2022/04/29 02:22:47;;;;;;;10.93;7.10;;;;;;;17.84;30.89;102388.06;5046797;28;20061;-71
2022/04/29 02:25:14;;;;;;;9.65;6.55;;;;;;;17.82;31.07;102390.06;5047631;28;20083;-71
2022/04/29 02:27:41;;;;;;;10.00;6.68;;;;;;;17.79;30.81;102381.13;5046049;28;20068;-70
2022/04/29 02:30:08;;;;;;;8.90;6.60;;;;;;;17.76;31.14;102382.25;5047593;28;20088;-70
2022/04/29 02:32:35;;;;;;;9.30;6.35;;;;;;;17.73;31.22;102382.47;5045569;28;20051;-70
2022/04/29 02:35:02;;;;;;;9.20;6.32;;;;;;;17.69;31.12;102378.22;5047618;28;20145;-71
2022/04/29 02:37:28;;;;;;;10.55;6.93;;;;;;;17.65;31.19;102373.91;5045459;28;20128;-70
2022/04/29 02:39:55;;;;;;;10.90;7.63;;;;;;;17.61;31.48;102375.09;5047011;28;20135;-71
2022/04/29 02:42:21;;;;;;;11.32;7.03;;;;;;;17.57;31.56;102387.28;5046370;28;20124;-71
2022/04/29 02:44:48;;;;;;;10.23;7.47;;;;;;;17.53;31.59;102382.13;5046994;28;20085;-70
2022/04/29 02:47:15;;;;;;;10.23;6.55;;;;;;;17.49;31.65;102384.22;5046220;28;20049;-70
2022/04/29 02:49:44;;;;;;;9.02;6.15;;;;;;;17.48;31.90;102382.44;5047093;28;20045;-71
2022/04/29 02:52:12;;;;;;;9.75;6.65;;;;;;;17.46;31.88;102377.06;5045354;28;20468;-70
2022/04/29 02:54:39;;;;;;;9.07;6.45;;;;;;;17.44;32.15;102381.81;5049652;28;20131;-70
2022/04/29 02:57:06;;;;;;;9.38;6.45;;;;;;;17.44;31.86;102381.81;5047304;28;20553;-70
2022/04/29 02:59:33;;;;;;;10.85;7.25;;;;;;;17.44;32.00;102383.69;5050617;28;20045;-70
2022/04/29 03:02:00;;;;;;;8.45;6.10;;;;;;;17.44;32.18;102381.81;5050019;28;20047;-70
2022/04/29 03:04:27;;;;;;;9.90;6.55;;;;;;;17.44;32.21;102380.94;5050944;28;20118;-70
2022/04/29 03:06:53;;;;;;;8.48;6.70;;;;;;;17.45;32.28;102374.44;5049538;28;20053;-70
2022/04/29 03:09:20;;;;;;;10.85;6.93;;;;;;;17.44;32.25;102372.69;5051018;28;20072;-71
2022/04/29 03:11:50;;;;;;;10.55;6.32;;;;;;;17.44;32.40;102378.19;5049082;28;20525;-70
2022/04/29 03:14:17;;;;;;;10.23;6.90;;;;;;;17.44;32.40;102370.81;5050465;28;20053;-69
2022/04/29 03:16:49;;;;;;;9.10;6.68;;;;;;;17.43;32.13;102373.69;5049103;28;20487;-70
2022/04/29 03:19:17;;;;;;;10.13;6.85;;;;;;;17.43;32.54;102369.06;5050553;28;20084;-70
2022/04/29 03:21:43;;;;;;;9.95;7.00;;;;;;;17.42;32.41;102375.53;5049452;28;20052;-70
2022/04/29 03:24:10;;;;;;;9.10;6.72;;;;;;;17.44;32.33;102375.44;5048888;28;20133;-69
2022/04/29 03:26:37;;;;;;;9.88;6.85;;;;;;;17.43;32.65;102379.16;5049632;28;20131;-70
2022/04/29 03:29:04;;;;;;;10.65;7.30;;;;;;;17.43;32.73;102381.91;5050646;28;20049;-70
2022/04/29 03:31:31;;;;;;;9.18;6.70;;;;;;;17.41;32.51;102370.16;5035858;28;20494;-70
2022/04/29 03:33:58;;;;;;;10.45;7.05;;;;;;;17.41;32.67;102376.53;5049671;28;20111;-70
2022/04/29 03:36:24;;;;;;;10.25;7.00;;;;;;;17.41;32.55;102368.28;5059945;28;20052;-70
2022/04/29 03:38:51;;;;;;;12.60;7.55;;;;;;;17.40;32.74;102374.75;5076592;28;20415;-70
2022/04/29 03:41:17;;;;;;;11.18;7.40;;;;;;;17.41;32.87;102370.16;5089089;28;20523;-70
2022/04/29 03:43:44;;;;;;;10.93;7.82;;;;;;;17.40;32.77;102362.91;5055679;28;20429;-70
2022/04/29 03:46:10;;;;;;;10.85;7.85;;;;;;;17.40;32.79;102363.78;5069427;28;20072;-70
2022/04/29 03:51:22;;;;;;;12.95;7.78;;;;;;;17.35;32.75;102355.00;5067543;28;20044;-71
2022/04/29 03:53:49;;;;;;;11.10;8.00;;;;;;;17.34;33.01;102358.75;5058571;28;20112;-71
2022/04/29 03:56:17;;;;;;;12.10;8.20;;;;;;;17.35;32.79;102362.38;5085236;28;20436;-71
2022/04/29 03:58:44;;;;;;;10.10;8.02;;;;;;;17.33;33.20;102351.47;5063247;28;20476;-71
2022/04/29 04:01:12;;;;;;;12.73;8.43;;;;;;;17.32;33.23;102360.72;5073044;28;20143;-72
2022/04/29 04:03:40;;;;;;;13.07;9.07;;;;;;;17.30;33.25;102353.56;5065919;28;20085;-71
2022/04/29 04:08:52;;;;;;;13.13;9.00;;;;;;;17.25;33.34;102353.03;5081260;28;20756;-71
2022/04/29 04:11:18;;;;;;;11.60;8.23;;;;;;;17.24;33.38;102354.00;5072368;28;20048;-71
2022/04/29 04:13:45;;;;;;;11.25;8.90;;;;;;;17.21;33.47;102351.50;5069120;28;20059;-71
2022/04/29 04:16:12;;;;;;;12.55;9.27;;;;;;;17.18;33.56;102352.59;5076429;28;20044;-71
2022/04/29 04:18:39;;;;;;;13.40;9.60;;;;;;;17.15;33.44;102354.66;5068936;28;20040;-71
2022/04/29 04:21:05;;;;;;;13.02;8.82;;;;;;;17.12;33.68;102355.78;5086400;28;20051;-71
2022/04/29 04:23:32;;;;;;;12.90;8.48;;;;;;;17.09;33.52;102358.72;5089167;28;20496;-71
2022/04/29 04:25:58;;;;;;;11.40;8.25;;;;;;;17.09;33.44;102366.94;5074556;28;20519;-71
2022/04/29 04:28:25;;;;;;;11.77;8.32;;;;;;;17.06;33.64;102362.53;5077835;28;20040;-71
2022/04/29 04:30:52;;;;;;;12.13;8.32;;;;;;;17.07;33.56;102367.06;5068466;28;20549;-71
2022/04/29 04:33:18;;;;;;;12.43;9.10;;;;;;;17.05;33.86;102363.53;5062316;28;20140;-71
2022/04/29 04:35:45;;;;;;;11.85;8.30;;;;;;;17.06;33.48;102370.78;5069665;28;20054;-71
2022/04/29 04:38:13;;;;;;;16.05;9.40;;;;;;;17.06;34.10;102364.41;5067089;28;20045;-71
2022/04/29 04:40:40;;;;;;;12.77;9.05;;;;;;;17.05;33.81;102366.28;5069053;28;20132;-72
2022/04/29 04:43:07;;;;;;;13.15;9.27;;;;;;;17.04;34.03;102361.81;5074360;28;20072;-71
2022/04/29 04:45:33;;;;;;;13.13;8.82;;;;;;;17.04;34.12;102367.28;5087133;28;20051;-70
2022/04/29 04:48:00;;;;;;;12.02;9.30;;;;;;;17.03;34.03;102356.41;5053863;28;20037;-71
2022/04/29 04:50:27;;;;;;;14.25;9.98;;;;;;;17.02;33.71;102361.03;5067930;28;20084;-72
2022/04/29 04:52:53;;;;;;;16.38;10.15;;;;;;;17.01;33.96;102355.63;5074444;28;20138;-72
2022/04/29 04:55:20;;;;;;;15.10;10.73;;;;;;;16.96;33.83;102353.22;5088546;28;20131;-72
2022/04/29 04:57:46;;;;;;;14.13;10.10;;;;;;;16.96;34.21;102355.97;5085660;28;20123;-71
2022/04/29 05:00:13;;;;;;;13.48;9.90;;;;;;;16.94;33.96;102359.78;5068207;28;20087;-70
2022/04/29 05:02:40;;;;;;;12.10;9.60;;;;;;;16.90;34.30;102361.84;5067665;28;20127;-70
2022/04/29 05:05:08;;;;;;;11.32;9.52;;;;;;;16.88;34.18;102362.97;5069118;28;20167;-69
2022/04/29 05:07:38;;;;;;;14.43;10.65;;;;;;;16.82;34.27;102360.63;5088169;28;20075;-70
2022/04/29 05:10:07;;;;;;;15.70;9.80;;;;;;;16.81;34.14;102361.63;5071447;28;20126;-70
2022/04/29 05:12:41;;;;;;;12.88;9.68;;;;;;;16.79;34.84;102360.88;5070100;28;20056;-71
2022/04/29 05:15:09;;;;;;;13.00;9.45;;;;;;;16.76;34.17;102370.19;5089152;28;20130;-72
2022/04/29 05:17:35;;;;;;;13.18;9.38;;;;;;;16.71;34.82;102361.41;5088104;28;20052;-71
2022/04/29 05:20:03;;;;;;;13.65;9.50;;;;;;;16.70;34.54;102356.88;5071340;28;20046;-72
2022/04/29 05:22:30;;;;;;;14.20;10.02;;;;;;;16.68;34.40;102367.06;5069876;28;20131;-70
2022/04/29 05:24:57;;;;;;;12.10;9.75;;;;;;;16.66;34.69;102367.19;5089200;28;20052;-71
2022/04/29 05:27:24;;;;;;;13.45;9.18;;;;;;;16.64;34.73;102363.66;5088492;28;20052;-72
2022/04/29 05:29:50;;;;;;;12.93;9.65;;;;;;;16.63;34.91;102358.31;5089116;28;20131;-71
2022/04/29 05:32:18;;;;;;;12.48;9.50;;;;;;;16.63;34.89;102361.03;5086953;28;20737;-71
2022/04/29 05:34:46;;;;;;;11.52;8.98;;;;;;;16.62;34.83;102357.41;5088866;28;20450;-71
2022/04/29 05:37:13;;;;;;;13.23;9.40;;;;;;;16.60;34.97;102362.09;5087247;28;20048;-71
2022/04/29 05:42:25;;;;;;;14.30;9.65;;;;;;;16.59;35.06;102362.19;5087376;28;20078;-71
2022/04/29 05:44:53;;;;;;;12.20;8.82;;;;;;;16.62;35.07;102362.03;5088797;28;20558;-70
2022/04/29 05:47:20;;;;;;;13.68;9.50;;;;;;;16.62;35.24;102364.75;5081962;28;20068;-71
2022/04/29 05:49:46;;;;;;;13.38;8.85;;;;;;;16.62;35.20;102356.53;5067973;28;20136;-71
2022/04/29 05:52:13;;;;;;;12.73;9.40;;;;;;;16.63;35.15;102359.19;5086027;28;20071;-70
2022/04/29 05:54:40;;;;;;;12.57;9.40;;;;;;;16.65;35.36;102364.53;5088156;28;20048;-73
2022/04/29 05:57:09;;;;;;;13.20;9.43;;;;;;;16.69;35.38;102357.88;5066143;28;20490;-72
2022/04/29 05:59:36;;;;;;;13.25;9.68;;;;;;;16.70;35.35;102366.00;5048718;28;20452;-71
2022/04/29 06:02:03;;;;;;;12.80;9.00;;;;;;;16.72;35.37;102361.25;5033139;28;20165;-70
2022/04/29 06:04:31;;;;;;;15.27;10.00;;;;;;;16.74;35.49;102362.03;5069310;28;20045;-70
2022/04/29 06:06:58;;;;;;;13.73;9.60;;;;;;;16.77;35.67;102358.22;5047442;28;20070;-70
2022/04/29 06:09:25;;;;;;;14.55;10.07;;;;;;;16.79;35.58;102364.50;5071921;28;20055;-70
2022/04/29 06:11:52;;;;;;;12.30;8.90;;;;;;;16.82;35.39;102371.59;5068231;28;20054;-70
2022/04/29 06:14:26;;;;;;;13.07;9.85;;;;;;;16.84;35.45;102377.88;5074838;28;20500;-70
2022/04/29 06:16:52;;;;;;;14.88;9.85;;;;;;;16.88;35.70;102382.19;5044335;28;20083;-70
2022/04/29 06:19:19;;;;;;;13.55;9.77;;;;;;;16.90;35.49;102380.19;5065190;28;20044;-70
2022/04/29 06:21:45;;;;;;;13.32;9.50;;;;;;;16.91;35.72;102369.09;5074988;28;20055;-70
2022/04/29 06:24:12;;;;;;;12.23;9.32;;;;;;;16.94;35.42;102373.50;5066916;28;20059;-69
2022/04/29 06:26:39;;;;;;;12.60;8.90;;;;;;;16.95;35.37;102370.66;5065975;28;20064;-71
2022/04/29 06:29:05;;;;;;;13.55;9.00;;;;;;;16.97;35.35;102362.31;5078636;28;20131;-71
2022/04/29 06:31:32;;;;;;;12.32;9.00;;;;;;;16.99;35.47;102368.56;5077592;28;20072;-70
2022/04/29 06:33:58;;;;;;;12.75;9.40;;;;;;;17.00;35.43;102362.09;5091171;28;20039;-71
2022/04/29 06:36:25;;;;;;;13.88;9.55;;;;;;;17.01;35.55;102366.59;5082856;28;20186;-71
2022/04/29 06:38:52;;;;;;;13.00;8.57;;;;;;;17.04;35.63;102371.91;5070501;28;20115;-71
2022/04/29 06:41:18;;;;;;;11.73;9.00;;;;;;;17.08;35.96;102378.91;5084471;28;20101;-70
2022/04/29 06:43:45;;;;;;;12.40;8.75;;;;;;;17.09;35.81;102378.81;5089620;28;20491;-71
2022/04/29 06:46:12;;;;;;;11.63;8.88;;;;;;;17.16;35.81;102384.75;5086181;28;20094;-70
2022/04/29 06:48:38;;;;;;;11.30;8.10;;;;;;;17.19;35.73;102379.06;5071618;28;20289;-71
2022/04/29 06:51:05;;;;;;;12.65;8.63;;;;;;;17.24;36.16;102378.72;5055916;28;20122;-70
2022/04/29 06:53:31;;;;;;;11.60;8.02;;;;;;;17.29;35.81;102380.16;5086356;28;20052;-71
2022/04/29 06:58:26;;;;;;;11.02;8.00;;;;;;;17.40;35.97;102385.75;5045160;28;20048;-68
2022/04/29 07:00:52;;;;;;;12.15;8.75;;;;;;;17.46;36.20;102388.03;5064709;28;20055;-69
2022/04/29 07:03:19;;;;;;;13.93;8.77;;;;;;;17.53;36.19;102384.88;5062642;28;20048;-69
2022/04/29 07:05:46;;;;;;;13.02;8.13;;;;;;;17.61;36.35;102385.22;5054633;28;20072;-68
2022/04/29 07:08:14;;;;;;;12.32;8.82;;;;;;;17.67;36.04;102382.94;5080747;28;20413;-69
2022/04/29 07:10:40;;;;;;;11.30;8.25;;;;;;;17.75;36.02;102383.25;5066858;28;20052;-69
2022/04/29 07:13:07;;;;;;;12.85;8.48;;;;;;;17.82;36.36;102381.81;5059422;28;20105;-69
2022/04/29 07:15:34;;;;;;;9.98;7.60;;;;;;;17.91;36.01;102382.13;5065038;28;20127;-69
2022/04/29 07:18:00;;;;;;;11.25;8.20;;;;;;;17.99;36.30;102382.44;5073533;28;20074;-69
2022/04/29 07:20:28;;;;;;;12.23;8.77;;;;;;;18.06;36.09;102383.72;5068248;28;20048;-69
2022/04/29 07:22:55;;;;;;;11.13;7.93;;;;;;;18.12;35.66;102391.50;5062723;28;20506;-69
2022/04/29 07:25:23;;;;;;;9.43;7.57;;;;;;;18.19;35.63;102382.72;5061707;28;20457;-69
2022/04/29 07:27:49;;;;;;;11.77;8.25;;;;;;;18.27;35.38;102368.41;5063109;28;20071;-69
2022/04/29 07:30:16;;;;;;;12.38;7.82;;;;;;;18.31;35.36;102361.66;5063312;28;20451;-69
2022/04/29 07:32:43;;;;;;;12.30;8.13;;;;;;;18.36;35.51;102359.47;5064124;28;20135;-69
2022/04/29 07:43:27;;;;;;;10.93;8.02;;;;;;;18.50;35.13;102370.28;5065597;28;20076;-68
2022/04/29 07:45:53;;;;;;;14.18;9.00;;;;;;;18.56;34.91;102371.69;5063255;28;20367;-68
2022/04/29 07:48:22;;;;;;;11.82;8.73;;;;;;;18.58;34.99;102369.72;5059812;28;20058;-69
2022/04/29 07:50:50;;;;;;;11.07;7.78;;;;;;;18.59;34.77;102374.25;5061542;28;20464;-69
2022/04/29 07:53:16;;;;;;;11.82;8.43;;;;;;;18.61;35.12;102372.25;5061189;28;20052;-69
2022/04/29 07:55:43;;;;;;;11.27;7.93;;;;;;;18.61;34.60;102370.34;5064232;28;20099;-69
2022/04/29 07:58:11;;;;;;;12.23;7.55;;;;;;;18.63;34.91;102379.38;5039397;28;20576;-69
2022/04/29 08:00:37;;;;;;;11.20;7.78;;;;;;;18.63;35.01;102373.88;5063081;28;20075;-69
2022/04/29 08:03:24;;;;;;;12.20;8.10;;;;;;;18.63;34.67;102373.88;5066107;28;20300;-68
2022/04/29 08:05:52;;;;;;;10.35;7.90;;;;;;;18.66;34.92;102382.91;5064096;28;20155;-69
2022/04/29 08:08:19;;;;;;;10.70;7.18;;;;;;;18.67;34.74;102374.53;5068090;28;20576;-69
2022/04/29 08:10:46;;;;;;;9.52;7.10;;;;;;;18.69;34.98;102377.16;5061523;28;20131;-69
2022/04/29 08:13:13;;;;;;;11.32;7.28;;;;;;;18.71;34.42;102375.16;5045404;28;20086;-69
2022/04/29 08:15:45;;;;;;;11.32;8.00;;;;;;;18.72;34.82;102372.28;5064544;28;20104;-69
2022/04/29 08:18:12;;;;;;;10.80;7.27;;;;;;;18.72;34.99;102375.03;5066073;28;20117;-70
2022/04/29 08:20:40;;;;;;;11.52;7.43;;;;;;;18.77;34.63;102375.59;5063768;28;20047;-69
2022/04/29 08:23:06;;;;;;;9.32;6.47;;;;;;;18.79;34.96;102375.44;5061519;28;20110;-69
2022/04/29 08:25:33;;;;;;;8.65;6.90;;;;;;;18.83;35.15;102374.22;5060966;28;20547;-69
2022/04/29 08:28:00;;;;;;;11.90;7.47;;;;;;;18.86;34.75;102374.00;5062825;28;20147;-69
2022/04/29 08:30:30;;;;;;;9.18;6.55;;;;;;;18.91;34.74;102380.88;5070710;28;20044;-69
2022/04/29 08:32:59;;;;;;;8.80;6.25;;;;;;;18.97;35.05;102374.03;5045049;28;20464;-69
2022/04/29 08:35:30;;;;;;;9.75;6.55;;;;;;;19.02;35.09;102378.16;5062331;28;20048;-69
2022/04/29 08:37:57;;;;;;;9.23;6.40;;;;;;;19.06;34.96;102375.16;5063943;28;20048;-69
2022/04/29 08:40:24;;;;;;;9.57;6.82;;;;;;;19.10;34.96;102379.47;5069080;28;20136;-70
2022/04/29 08:42:53;;;;;;;9.20;6.75;;;;;;;19.14;34.64;102370.81;5066642;28;20340;-69
2022/04/29 08:45:20;;;;;;;7.55;6.10;;;;;;;19.17;34.97;102375.22;5062549;28;20045;-68
2022/04/29 08:47:47;;;;;;;9.18;6.55;;;;;;;19.22;34.88;102379.34;5049759;28;20128;-70
2022/04/29 08:50:16;;;;;;;9.70;6.50;;;;;;;19.27;34.63;102371.59;5047881;28;20041;-69
2022/04/29 08:52:44;;;;;;;10.40;6.97;;;;;;;19.30;34.29;102375.97;5061179;28;20133;-68
2022/04/29 09:00:43;;;;;;;8.43;6.28;;;;;;;19.34;34.03;102372.00;5072208;28;20044;-69
2022/04/29 09:03:11;;;;;;;8.57;5.75;;;;;;;19.39;33.93;102373.38;5069447;28;20412;-67
2022/04/29 09:05:39;;;;;;;9.77;6.43;;;;;;;19.39;34.20;102369.75;5061889;28;20040;-68
2022/04/29 09:08:06;;;;;;;8.50;5.85;;;;;;;19.43;33.66;102367.63;5063102;28;20064;-67
2022/04/29 09:10:35;;;;;;;8.38;6.32;;;;;;;19.47;33.86;102371.88;5062879;28;20045;-67
2022/04/29 09:13:17;;;;;;;10.20;6.20;;;;;;;19.50;33.68;102379.94;5064522;28;20515;-68
2022/04/29 09:16:12;;;;;;;9.38;6.30;;;;;;;19.44;33.87;102373.00;5066354;28;20135;-68
2022/04/29 09:18:44;;;;;;;7.65;5.38;;;;;;;19.53;33.92;102376.94;5058372;28;20512;-68
2022/04/29 09:21:11;;;;;;;6.90;5.30;;;;;;;19.54;34.38;102374.06;5060618;28;20040;-68
2022/04/29 09:24:06;;;;;;;9.40;5.60;;;;;;;19.59;34.58;102371.81;5058188;28;20241;-69
2022/04/29 09:26:34;;;;;;;8.35;5.72;;;;;;;19.64;34.06;102371.44;5058467;28;20079;-69
2022/04/29 09:29:13;;;;;;;8.32;5.47;;;;;;;19.70;33.91;102365.41;5063136;28;20121;-69
2022/04/29 09:31:56;;;;;;;7.95;6.22;;;;;;;19.75;34.18;102375.09;5057071;28;20106;-69
2022/04/29 09:34:58;;;;;;;7.75;5.88;;;;;;;19.75;34.27;102371.44;5058114;28;20127;-69
2022/04/29 09:37:30;;;;;;;9.68;6.28;;;;;;;19.79;34.06;102369.31;5062973;28;20462;-72
2022/04/29 09:40:05;;;;;;;13.80;6.75;;;;;;;19.83;34.21;102368.94;5069861;28;20097;-72
2022/04/29 09:42:41;;;;;;;7.68;5.75;;;;;;;19.88;33.31;102366.69;5060035;28;20052;-72
2022/04/29 09:45:24;;;;;;;8.52;5.90;;;;;;;19.91;33.52;102369.19;5065061;28;20044;-68
2022/04/29 09:47:56;;;;;;;7.68;5.60;;;;;;;19.95;33.91;102370.69;5057776;28;20044;-69
2022/04/29 09:50:48;;;;;;;9.77;6.43;;;;;;;19.97;33.46;102365.03;5062698;28;20143;-69
2022/04/29 09:53:24;;;;;;;10.60;6.20;;;;;;;20.02;33.15;102371.91;5062039;28;20043;-68
2022/04/29 09:56:05;;;;;;;9.40;5.95;;;;;;;20.05;33.09;102370.81;5066527;28;20056;-68
2022/04/29 09:58:32;;;;;;;8.85;5.80;;;;;;;20.07;33.58;102364.16;5058457;28;20060;-69
2022/04/29 10:01:00;;;;;;;7.15;5.45;;;;;;;20.12;33.70;102372.03;5064013;28;20080;-68
2022/04/29 10:03:28;;;;;;;8.82;5.95;;;;;;;20.18;33.27;102367.91;5061284;28;20110;-68
2022/04/29 10:05:57;;;;;;;7.85;6.43;;;;;;;20.21;33.63;102375.91;5068988;28;20045;-68
2022/04/29 10:08:26;;;;;;;8.43;5.60;;;;;;;20.25;33.80;102366.41;5069593;28;20516;-68
2022/04/29 10:10:56;;;;;;;8.70;6.00;;;;;;;20.32;33.63;102371.28;5058027;28;20146;-68
2022/04/29 10:13:27;;;;;;;9.35;5.47;;;;;;;20.35;33.19;102371.03;5063092;28;20053;-69
2022/04/29 10:15:53;;;;;;;8.18;5.75;;;;;;;20.41;33.28;102362.25;5063835;28;20552;-69
2022/04/29 10:21:15;;;;;;;10.70;6.55;;;;;;;20.53;33.09;102371.34;5064129;28;20087;-69
2022/04/29 10:23:48;;;;;;;9.93;6.28;;;;;;;20.57;32.77;102374.75;5072605;28;20139;-69
2022/04/29 10:26:20;;;;;;;8.02;5.85;;;;;;;20.62;32.18;102370.56;5065198;28;20563;-69
2022/04/29 10:28:48;;;;;;;10.43;6.53;;;;;;;20.60;32.87;102371.69;5064604;28;20081;-69
2022/04/29 10:31:20;;;;;;;7.50;5.28;;;;;;;20.66;32.34;102365.69;5065308;28;20060;-69
2022/04/29 10:33:48;;;;;;;11.60;6.72;;;;;;;20.61;32.23;102363.28;5077183;28;20463;-68
2022/04/29 10:36:15;;;;;;;9.40;5.75;;;;;;;20.64;32.36;102368.56;5064453;28;20061;-69
2022/04/29 10:38:46;;;;;;;8.75;5.85;;;;;;;20.67;32.59;102368.28;5069857;28;20143;-68
2022/04/29 10:41:20;;;;;;;12.55;6.40;;;;;;;20.68;31.94;102366.41;5071123;28;20044;-68
2022/04/29 10:43:50;;;;;;;9.63;6.70;;;;;;;20.68;32.41;102361.75;5072117;28;20132;-70
2022/04/29 10:46:29;;;;;;;11.10;6.70;;;;;;;20.69;31.57;102359.88;5066320;28;20053;-68
2022/04/29 10:48:57;;;;;;;10.35;6.78;;;;;;;20.64;31.83;102360.28;5072400;28;20054;-68
2022/04/29 10:51:26;;;;;;;9.25;6.18;;;;;;;20.69;31.97;102357.13;5070165;28;20072;-69
2022/04/29 10:53:55;;;;;;;9.70;5.70;;;;;;;20.68;32.25;102352.59;5069063;28;20060;-69
2022/04/29 10:56:31;;;;;;;7.40;5.22;;;;;;;20.70;32.17;102354.22;5049669;28;20516;-68
2022/04/29 10:59:03;;;;;;;7.55;5.15;;;;;;;20.74;32.60;102358.50;5067646;28;20064;-68
2022/04/29 11:01:33;;;;;;;9.40;6.07;;;;;;;20.74;32.63;102357.63;5066540;28;20076;-68
2022/04/29 11:04:02;;;;;;;8.55;5.88;;;;;;;20.79;32.21;102355.31;5066569;28;20076;-69
2022/04/29 11:06:40;;;;;;;9.55;5.78;;;;;;;20.86;32.55;102346.38;5063131;28;20523;-68
2022/04/29 11:09:28;;;;;;;9.02;6.03;;;;;;;20.88;32.02;102338.84;5072797;28;20071;-68
2022/04/29 11:11:55;;;;;;;8.38;5.43;;;;;;;20.93;32.69;102334.78;5065230;28;20693;-68
2022/04/29 11:14:22;;;;;;;8.32;6.60;;;;;;;20.98;32.71;102329.75;5062468;28;20076;-68
2022/04/29 11:16:55;;;;;;;8.75;6.40;;;;;;;21.05;32.25;102331.84;5074894;28;20131;-68
2022/04/29 11:19:28;;;;;;;12.35;7.20;;;;;;;21.07;32.02;102331.72;5069013;28;20525;-68
2022/04/29 11:24:46;;;;;;;10.00;7.07;;;;;;;21.16;31.91;102330.91;5063703;28;20138;-68
2022/04/29 11:27:13;;;;;;;11.88;6.57;;;;;;;21.16;31.88;102322.63;5065949;28;20068;-68
2022/04/29 11:29:46;;;;;;;9.15;5.90;;;;;;;21.23;31.89;102329.41;5066489;28;20067;-68
2022/04/29 11:32:13;;;;;;;10.10;6.38;;;;;;;21.25;32.26;102319.06;5065496;28;20132;-68
2022/04/29 11:35:00;;;;;;;7.88;5.10;;;;;;;21.31;32.23;102304.72;5064889;28;20425;-69
2022/04/29 11:37:28;;;;;;;10.48;5.93;;;;;;;21.33;32.41;102310.13;5062916;28;20094;-69
2022/04/29 11:39:56;;;;;;;10.52;6.88;;;;;;;21.35;32.22;102297.00;5065052;28;20543;-69
2022/04/29 11:42:23;;;;;;;9.80;6.63;;;;;;;21.39;32.26;102295.75;5047645;28;20087;-69
2022/04/29 11:44:49;;;;;;;9.68;6.20;;;;;;;21.42;32.18;102304.63;5070956;28;20072;-69
2022/04/29 11:47:22;;;;;;;11.55;6.63;;;;;;;21.46;31.83;102306.09;5063870;28;20085;-69
2022/04/29 11:49:48;;;;;;;9.93;5.85;;;;;;;21.47;31.62;102302.34;5068452;28;20094;-69
2022/04/29 11:52:26;;;;;;;9.15;5.55;;;;;;;21.54;30.95;102298.00;5066503;28;20036;-69
2022/04/29 11:55:00;;;;;;;7.20;5.13;;;;;;;21.56;31.28;102295.97;5074292;28;20491;-68
2022/04/29 11:57:31;;;;;;;9.10;6.43;;;;;;;21.55;31.26;102302.53;5071787;28;20048;-69
2022/04/29 11:59:59;;;;;;;9.75;6.50;;;;;;;21.56;30.71;102303.41;5070489;28;20834;-68